Impacts TAF Board
For situational awareness. Not to be used for flight planning purposes.
IDs:

KBLI - Bellingham Intl, WA, US

Issued at 2346 UTC 05 Dec 2019
Updated at 0115 UTC 06 Dec 2019
Potential Impact None Slight Moderate High
Time0053Z 06/02Z 06/03Z 06/04Z 06/05Z 06/06Z 06/07Z 06/08Z 06/09Z 06/10Z 06/11Z 06/12Z 06/13Z 06/14Z>>
Type OBS PRVL PRVL PRVL PRVL PRVL PRVL PRVL PRVL PRVL PRVL PRVL PRVL PRVL
VIS 10 >6 >6 >6 >6 >6 >6 >6 >6 >6 >6 >6 >6 5
CIG 31 30 30 30 30 50 50 50 50 50 50 50 50 30
Cover OVC BKN BKN BKN BKN OVC OVC OVC OVC OVC OVC OVC OVC OVC
FltCat VFR MVFR MVFR MVFR MVFR VFR VFR VFR VFR VFR VFR VFR VFR MVFR
WX -- -- -- -- -- -- -- -- -- -- -- -- -- -RA
WDir 30 20 20 20 20 30 30 350 350 350 350 350 350 360
WSpd 6 5 5 5 5 2 2 3 3 3 3 3 3 2
WGst -- -- -- -- -- -- -- -- -- -- -- -- -- --
Raw TAF
KBLI 052346Z 0600/0624 02005KT P6SM BKN030 BKN150
  FM060600 03002KT P6SM OVC050
  FM060800 35003KT P6SM OVC050
  FM061400 36002KT 5SM -RA OVC030
  FM061700 04002KT 3SM -RA OVC020


Raw METAR
KBLI 060053Z 03006KT 10SM OVC031 07/01 A3003 RMK AO2 SLP177 T00720011
KBLI 052353Z 01005KT 10SM OVC032 08/01 A3005 RMK AO2 SLP183 T00780011 10094 20067 56003
KBLI 052253Z 02005KT 10SM OVC032 08/01 A3005 RMK AO2 SLP182 T00830011

METAR Board
Radar Display
Forecast Discussion
For situational awareness. Not to be used for flight planning purposes.